sensor_id;sensor_type;location;lat;lon;timestamp;P1;durP1;ratioP1;P2;durP2;ratioP2
16813;SDS011;8524;57.650;11.926;2023-03-14T00:00:01;20.07;;;5.53;;
16813;SDS011;8524;57.650;11.926;2023-03-14T00:02:31;22.30;;;6.23;;
16813;SDS011;8524;57.650;11.926;2023-03-14T00:04:59;24.47;;;6.00;;
16813;SDS011;8524;57.650;11.926;2023-03-14T00:07:27;29.10;;;6.57;;
16813;SDS011;8524;57.650;11.926;2023-03-14T00:09:58;27.93;;;6.30;;
16813;SDS011;8524;57.650;11.926;2023-03-14T00:12:26;19.97;;;5.57;;
16813;SDS011;8524;57.650;11.926;2023-03-14T00:14:53;26.87;;;6.07;;
16813;SDS011;8524;57.650;11.926;2023-03-14T00:17:20;24.50;;;7.15;;
16813;SDS011;8524;57.650;11.926;2023-03-14T00:19:48;26.40;;;5.87;;
16813;SDS011;8524;57.650;11.926;2023-03-14T00:22:18;20.33;;;5.20;;
16813;SDS011;8524;57.650;11.926;2023-03-14T00:24:45;24.77;;;5.80;;
16813;SDS011;8524;57.650;11.926;2023-03-14T00:27:13;19.87;;;5.57;;
16813;SDS011;8524;57.650;11.926;2023-03-14T00:29:40;19.27;;;5.23;;
16813;SDS011;8524;57.650;11.926;2023-03-14T00:32:09;26.30;;;5.93;;
16813;SDS011;8524;57.650;11.926;2023-03-14T00:34:36;19.70;;;5.00;;
16813;SDS011;8524;57.650;11.926;2023-03-14T00:37:03;17.67;;;5.13;;
16813;SDS011;8524;57.650;11.926;2023-03-14T00:39:31;16.60;;;4.40;;
16813;SDS011;8524;57.650;11.926;2023-03-14T00:41:59;21.20;;;5.33;;
16813;SDS011;8524;57.650;11.926;2023-03-14T00:44:26;24.30;;;6.30;;
16813;SDS011;8524;57.650;11.926;2023-03-14T00:46:53;22.03;;;5.93;;
16813;SDS011;8524;57.650;11.926;2023-03-14T00:49:20;24.43;;;6.20;;
16813;SDS011;8524;57.650;11.926;2023-03-14T00:51:47;31.63;;;6.50;;
16813;SDS011;8524;57.650;11.926;2023-03-14T00:54:14;19.90;;;5.90;;
16813;SDS011;8524;57.650;11.926;2023-03-14T00:56:43;21.97;;;5.20;;
16813;SDS011;8524;57.650;11.926;2023-03-14T00:59:10;18.47;;;4.83;;
16813;SDS011;8524;57.650;11.926;2023-03-14T01:01:37;13.40;;;4.40;;
16813;SDS011;8524;57.650;11.926;2023-03-14T01:04:05;18.67;;;4.73;;
16813;SDS011;8524;57.650;11.926;2023-03-14T01:06:32;23.93;;;3.83;;
16813;SDS011;8524;57.650;11.926;2023-03-14T01:08:59;20.13;;;4.57;;
16813;SDS011;8524;57.650;11.926;2023-03-14T01:11:28;18.23;;;4.40;;
16813;SDS011;8524;57.650;11.926;2023-03-14T01:13:58;13.63;;;4.20;;
16813;SDS011;8524;57.650;11.926;2023-03-14T01:16:26;14.57;;;4.90;;
16813;SDS011;8524;57.650;11.926;2023-03-14T01:18:55;15.47;;;3.50;;
16813;SDS011;8524;57.650;11.926;2023-03-14T01:21:23;13.27;;;3.80;;
16813;SDS011;8524;57.650;11.926;2023-03-14T01:23:52;10.47;;;3.37;;
16813;SDS011;8524;57.650;11.926;2023-03-14T01:26:20;12.83;;;3.73;;
16813;SDS011;8524;57.650;11.926;2023-03-14T01:28:51;14.50;;;3.77;;
16813;SDS011;8524;57.650;11.926;2023-03-14T01:31:21;12.37;;;3.47;;
16813;SDS011;8524;57.650;11.926;2023-03-14T01:33:49;13.90;;;3.50;;
16813;SDS011;8524;57.650;11.926;2023-03-14T01:36:17;16.67;;;4.13;;
16813;SDS011;8524;57.650;11.926;2023-03-14T01:38:44;14.67;;;3.50;;
16813;SDS011;8524;57.650;11.926;2023-03-14T01:41:13;17.43;;;4.27;;
16813;SDS011;8524;57.650;11.926;2023-03-14T01:43:42;17.07;;;3.67;;
16813;SDS011;8524;57.650;11.926;2023-03-14T01:48:59;15.27;;;4.23;;
16813;SDS011;8524;57.650;11.926;2023-03-14T01:51:31;11.20;;;3.00;;
16813;SDS011;8524;57.650;11.926;2023-03-14T01:54:04;15.73;;;3.77;;
16813;SDS011;8524;57.650;11.926;2023-03-14T01:56:35;8.30;;;2.80;;
16813;SDS011;8524;57.650;11.926;2023-03-14T01:59:05;11.53;;;3.17;;
16813;SDS011;8524;57.650;11.926;2023-03-14T02:01:35;11.80;;;3.20;;
16813;SDS011;8524;57.650;11.926;2023-03-14T02:04:03;12.60;;;2.93;;
16813;SDS011;8524;57.650;11.926;2023-03-14T02:06:34;11.80;;;3.20;;
16813;SDS011;8524;57.650;11.926;2023-03-14T02:09:07;17.57;;;3.63;;
16813;SDS011;8524;57.650;11.926;2023-03-14T02:11:34;12.93;;;3.07;;
16813;SDS011;8524;57.650;11.926;2023-03-14T02:14:01;16.93;;;3.30;;
16813;SDS011;8524;57.650;11.926;2023-03-14T02:16:29;15.83;;;3.90;;
16813;SDS011;8524;57.650;11.926;2023-03-14T02:18:58;12.37;;;3.63;;
16813;SDS011;8524;57.650;11.926;2023-03-14T02:21:28;16.87;;;3.80;;
16813;SDS011;8524;57.650;11.926;2023-03-14T02:24:09;15.80;;;4.00;;
16813;SDS011;8524;57.650;11.926;2023-03-14T02:26:43;11.80;;;3.50;;
16813;SDS011;8524;57.650;11.926;2023-03-14T02:29:28;13.93;;;3.50;;
16813;SDS011;8524;57.650;11.926;2023-03-14T02:31:57;16.97;;;3.67;;
16813;SDS011;8524;57.650;11.926;2023-03-14T02:34:24;10.67;;;2.97;;
16813;SDS011;8524;57.650;11.926;2023-03-14T02:36:52;12.40;;;3.40;;
16813;SDS011;8524;57.650;11.926;2023-03-14T02:39:21;10.83;;;2.90;;
16813;SDS011;8524;57.650;11.926;2023-03-14T02:41:52;10.10;;;2.73;;
16813;SDS011;8524;57.650;11.926;2023-03-14T02:44:19;8.10;;;2.40;;
16813;SDS011;8524;57.650;11.926;2023-03-14T02:46:47;12.55;;;3.65;;
16813;SDS011;8524;57.650;11.926;2023-03-14T02:49:14;13.87;;;2.80;;
16813;SDS011;8524;57.650;11.926;2023-03-14T02:51:43;10.83;;;2.50;;
16813;SDS011;8524;57.650;11.926;2023-03-14T02:54:11;8.73;;;2.73;;
16813;SDS011;8524;57.650;11.926;2023-03-14T02:56:40;10.13;;;2.50;;
16813;SDS011;8524;57.650;11.926;2023-03-14T02:59:07;11.37;;;2.63;;
16813;SDS011;8524;57.650;11.926;2023-03-14T03:01:34;10.77;;;2.70;;
16813;SDS011;8524;57.650;11.926;2023-03-14T03:04:03;11.73;;;3.10;;
16813;SDS011;8524;57.650;11.926;2023-03-14T03:06:30;15.27;;;2.80;;
16813;SDS011;8524;57.650;11.926;2023-03-14T03:08:57;11.20;;;2.47;;
16813;SDS011;8524;57.650;11.926;2023-03-14T03:11:24;7.03;;;2.47;;
16813;SDS011;8524;57.650;11.926;2023-03-14T03:13:51;11.03;;;3.30;;
16813;SDS011;8524;57.650;11.926;2023-03-14T03:16:18;8.17;;;2.10;;
16813;SDS011;8524;57.650;11.926;2023-03-14T03:18:45;10.57;;;2.53;;
16813;SDS011;8524;57.650;11.926;2023-03-14T03:21:14;8.95;;;3.08;;
16813;SDS011;8524;57.650;11.926;2023-03-14T03:23:42;10.23;;;2.67;;
16813;SDS011;8524;57.650;11.926;2023-03-14T03:26:09;9.13;;;2.47;;
16813;SDS011;8524;57.650;11.926;2023-03-14T03:28:36;11.30;;;3.27;;
16813;SDS011;8524;57.650;11.926;2023-03-14T03:31:07;8.87;;;3.03;;
16813;SDS011;8524;57.650;11.926;2023-03-14T03:33:34;10.37;;;2.20;;
16813;SDS011;8524;57.650;11.926;2023-03-14T03:36:02;7.30;;;2.30;;
16813;SDS011;8524;57.650;11.926;2023-03-14T03:38:31;10.93;;;2.93;;
16813;SDS011;8524;57.650;11.926;2023-03-14T03:40:58;12.87;;;2.60;;
16813;SDS011;8524;57.650;11.926;2023-03-14T03:43:28;6.43;;;2.10;;
16813;SDS011;8524;57.650;11.926;2023-03-14T03:45:55;7.07;;;1.90;;
16813;SDS011;8524;57.650;11.926;2023-03-14T03:48:22;8.60;;;2.20;;
16813;SDS011;8524;57.650;11.926;2023-03-14T03:50:50;11.77;;;3.00;;
16813;SDS011;8524;57.650;11.926;2023-03-14T03:53:17;10.27;;;2.10;;
16813;SDS011;8524;57.650;11.926;2023-03-14T03:55:45;7.50;;;1.80;;
16813;SDS011;8524;57.650;11.926;2023-03-14T03:58:12;14.33;;;2.63;;
16813;SDS011;8524;57.650;11.926;2023-03-14T04:00:39;7.23;;;2.70;;
16813;SDS011;8524;57.650;11.926;2023-03-14T04:03:07;10.87;;;2.43;;
16813;SDS011;8524;57.650;11.926;2023-03-14T04:05:34;7.03;;;2.83;;
16813;SDS011;8524;57.650;11.926;2023-03-14T04:08:01;10.37;;;2.37;;
16813;SDS011;8524;57.650;11.926;2023-03-14T04:10:29;8.83;;;2.07;;
16813;SDS011;8524;57.650;11.926;2023-03-14T04:12:57;9.23;;;2.87;;
16813;SDS011;8524;57.650;11.926;2023-03-14T04:15:25;13.03;;;2.60;;
16813;SDS011;8524;57.650;11.926;2023-03-14T04:17:56;5.27;;;1.60;;
16813;SDS011;8524;57.650;11.926;2023-03-14T04:20:23;8.70;;;2.70;;
16813;SDS011;8524;57.650;11.926;2023-03-14T04:22:50;10.43;;;2.50;;
16813;SDS011;8524;57.650;11.926;2023-03-14T04:25:17;14.43;;;2.60;;
16813;SDS011;8524;57.650;11.926;2023-03-14T04:27:45;12.27;;;2.60;;
16813;SDS011;8524;57.650;11.926;2023-03-14T04:30:14;10.07;;;2.40;;
16813;SDS011;8524;57.650;11.926;2023-03-14T04:32:41;8.43;;;2.00;;
16813;SDS011;8524;57.650;11.926;2023-03-14T04:35:08;10.40;;;2.90;;
16813;SDS011;8524;57.650;11.926;2023-03-14T04:37:35;8.10;;;2.43;;
16813;SDS011;8524;57.650;11.926;2023-03-14T04:40:03;11.67;;;2.93;;
16813;SDS011;8524;57.650;11.926;2023-03-14T04:42:31;12.47;;;2.80;;
16813;SDS011;8524;57.650;11.926;2023-03-14T04:44:58;10.23;;;2.27;;
16813;SDS011;8524;57.650;11.926;2023-03-14T04:47:27;13.53;;;2.60;;
16813;SDS011;8524;57.650;11.926;2023-03-14T04:49:54;9.47;;;3.00;;
16813;SDS011;8524;57.650;11.926;2023-03-14T04:52:21;13.57;;;3.20;;
16813;SDS011;8524;57.650;11.926;2023-03-14T04:54:48;7.60;;;2.73;;
16813;SDS011;8524;57.650;11.926;2023-03-14T04:57:15;12.37;;;2.43;;
16813;SDS011;8524;57.650;11.926;2023-03-14T04:59:42;9.90;;;2.47;;
16813;SDS011;8524;57.650;11.926;2023-03-14T05:02:09;11.23;;;2.47;;
16813;SDS011;8524;57.650;11.926;2023-03-14T05:04:38;10.63;;;2.93;;
16813;SDS011;8524;57.650;11.926;2023-03-14T05:07:05;11.37;;;2.50;;
16813;SDS011;8524;57.650;11.926;2023-03-14T05:09:32;11.27;;;3.27;;
16813;SDS011;8524;57.650;11.926;2023-03-14T05:11:59;13.20;;;3.30;;
16813;SDS011;8524;57.650;11.926;2023-03-14T05:14:26;9.53;;;2.77;;
16813;SDS011;8524;57.650;11.926;2023-03-14T05:16:53;12.57;;;3.13;;
16813;SDS011;8524;57.650;11.926;2023-03-14T05:19:20;9.60;;;2.63;;
16813;SDS011;8524;57.650;11.926;2023-03-14T05:21:48;12.90;;;3.10;;
16813;SDS011;8524;57.650;11.926;2023-03-14T05:24:15;10.50;;;3.20;;
16813;SDS011;8524;57.650;11.926;2023-03-14T05:26:42;13.70;;;3.17;;
16813;SDS011;8524;57.650;11.926;2023-03-14T05:29:10;13.27;;;3.20;;
16813;SDS011;8524;57.650;11.926;2023-03-14T05:31:37;15.67;;;3.70;;
16813;SDS011;8524;57.650;11.926;2023-03-14T05:34:04;14.20;;;3.67;;
16813;SDS011;8524;57.650;11.926;2023-03-14T05:36:31;11.70;;;3.17;;
16813;SDS011;8524;57.650;11.926;2023-03-14T05:38:59;12.87;;;2.87;;
16813;SDS011;8524;57.650;11.926;2023-03-14T05:41:26;12.47;;;3.30;;
16813;SDS011;8524;57.650;11.926;2023-03-14T05:43:56;12.40;;;2.93;;
16813;SDS011;8524;57.650;11.926;2023-03-14T05:46:23;12.00;;;3.07;;
16813;SDS011;8524;57.650;11.926;2023-03-14T05:48:50;16.63;;;3.57;;
16813;SDS011;8524;57.650;11.926;2023-03-14T05:51:17;13.00;;;3.40;;
16813;SDS011;8524;57.650;11.926;2023-03-14T05:53:44;15.20;;;3.33;;
16813;SDS011;8524;57.650;11.926;2023-03-14T05:56:13;10.27;;;3.43;;
16813;SDS011;8524;57.650;11.926;2023-03-14T05:58:40;13.57;;;3.33;;
16813;SDS011;8524;57.650;11.926;2023-03-14T06:01:07;16.03;;;4.67;;
16813;SDS011;8524;57.650;11.926;2023-03-14T06:03:35;14.50;;;3.77;;
16813;SDS011;8524;57.650;11.926;2023-03-14T06:06:02;13.30;;;3.27;;
16813;SDS011;8524;57.650;11.926;2023-03-14T06:08:29;13.70;;;3.17;;
16813;SDS011;8524;57.650;11.926;2023-03-14T06:10:56;13.00;;;3.27;;
16813;SDS011;8524;57.650;11.926;2023-03-14T06:13:25;12.53;;;3.13;;
16813;SDS011;8524;57.650;11.926;2023-03-14T06:15:52;17.50;;;3.97;;
16813;SDS011;8524;57.650;11.926;2023-03-14T06:18:19;17.63;;;3.77;;
16813;SDS011;8524;57.650;11.926;2023-03-14T06:20:46;21.40;;;4.33;;
16813;SDS011;8524;57.650;11.926;2023-03-14T06:23:13;12.40;;;3.20;;
16813;SDS011;8524;57.650;11.926;2023-03-14T06:25:40;20.40;;;4.30;;
16813;SDS011;8524;57.650;11.926;2023-03-14T06:28:07;16.20;;;4.17;;
16813;SDS011;8524;57.650;11.926;2023-03-14T06:30:35;14.27;;;3.60;;
16813;SDS011;8524;57.650;11.926;2023-03-14T06:33:02;20.00;;;4.40;;
16813;SDS011;8524;57.650;11.926;2023-03-14T06:35:29;16.50;;;4.80;;
16813;SDS011;8524;57.650;11.926;2023-03-14T06:37:56;17.07;;;4.10;;
16813;SDS011;8524;57.650;11.926;2023-03-14T06:40:23;20.90;;;3.93;;
16813;SDS011;8524;57.650;11.926;2023-03-14T06:42:51;20.33;;;4.93;;
16813;SDS011;8524;57.650;11.926;2023-03-14T06:45:18;15.97;;;3.90;;
16813;SDS011;8524;57.650;11.926;2023-03-14T06:47:46;15.57;;;3.70;;
16813;SDS011;8524;57.650;11.926;2023-03-14T06:50:14;13.00;;;3.67;;
16813;SDS011;8524;57.650;11.926;2023-03-14T06:52:41;13.80;;;3.83;;
16813;SDS011;8524;57.650;11.926;2023-03-14T06:55:12;18.10;;;4.23;;
16813;SDS011;8524;57.650;11.926;2023-03-14T06:57:40;14.83;;;3.73;;
16813;SDS011;8524;57.650;11.926;2023-03-14T07:00:09;12.17;;;3.27;;
16813;SDS011;8524;57.650;11.926;2023-03-14T07:02:38;16.57;;;3.67;;
16813;SDS011;8524;57.650;11.926;2023-03-14T07:05:07;18.53;;;3.87;;
16813;SDS011;8524;57.650;11.926;2023-03-14T07:07:35;12.23;;;3.37;;
16813;SDS011;8524;57.650;11.926;2023-03-14T07:10:02;18.33;;;3.90;;
16813;SDS011;8524;57.650;11.926;2023-03-14T07:12:30;13.40;;;3.63;;
16813;SDS011;8524;57.650;11.926;2023-03-14T07:14:57;15.70;;;3.03;;
16813;SDS011;8524;57.650;11.926;2023-03-14T07:17:24;9.77;;;2.67;;
16813;SDS011;8524;57.650;11.926;2023-03-14T07:19:52;11.47;;;2.63;;
16813;SDS011;8524;57.650;11.926;2023-03-14T07:22:22;9.97;;;2.70;;
16813;SDS011;8524;57.650;11.926;2023-03-14T07:24:49;13.00;;;3.10;;
16813;SDS011;8524;57.650;11.926;2023-03-14T07:27:22;8.70;;;2.60;;
16813;SDS011;8524;57.650;11.926;2023-03-14T07:29:49;10.30;;;2.27;;
16813;SDS011;8524;57.650;11.926;2023-03-14T07:32:19;9.73;;;2.40;;
16813;SDS011;8524;57.650;11.926;2023-03-14T07:34:47;11.67;;;2.97;;
16813;SDS011;8524;57.650;11.926;2023-03-14T07:37:14;10.33;;;2.70;;
16813;SDS011;8524;57.650;11.926;2023-03-14T07:39:42;8.70;;;2.27;;
16813;SDS011;8524;57.650;11.926;2023-03-14T07:42:09;8.90;;;2.80;;
16813;SDS011;8524;57.650;11.926;2023-03-14T07:44:37;11.70;;;3.17;;
16813;SDS011;8524;57.650;11.926;2023-03-14T07:47:04;8.17;;;2.73;;
16813;SDS011;8524;57.650;11.926;2023-03-14T07:49:31;9.17;;;2.87;;
16813;SDS011;8524;57.650;11.926;2023-03-14T07:51:58;9.57;;;2.80;;
16813;SDS011;8524;57.650;11.926;2023-03-14T07:54:25;9.00;;;2.33;;
16813;SDS011;8524;57.650;11.926;2023-03-14T07:56:54;10.60;;;2.70;;
16813;SDS011;8524;57.650;11.926;2023-03-14T07:59:23;8.43;;;2.50;;
16813;SDS011;8524;57.650;11.926;2023-03-14T08:01:50;13.80;;;2.70;;
16813;SDS011;8524;57.650;11.926;2023-03-14T08:04:18;12.00;;;2.67;;
16813;SDS011;8524;57.650;11.926;2023-03-14T08:06:49;11.37;;;3.20;;
16813;SDS011;8524;57.650;11.926;2023-03-14T08:09:29;11.23;;;2.90;;
16813;SDS011;8524;57.650;11.926;2023-03-14T08:12:00;12.73;;;3.33;;
16813;SDS011;8524;57.650;11.926;2023-03-14T08:14:27;13.77;;;2.90;;
16813;SDS011;8524;57.650;11.926;2023-03-14T08:16:56;12.23;;;2.77;;
16813;SDS011;8524;57.650;11.926;2023-03-14T08:19:23;14.00;;;3.53;;
16813;SDS011;8524;57.650;11.926;2023-03-14T08:21:50;10.40;;;2.80;;
16813;SDS011;8524;57.650;11.926;2023-03-14T08:24:18;8.83;;;3.20;;
16813;SDS011;8524;57.650;11.926;2023-03-14T08:26:45;10.30;;;2.53;;
16813;SDS011;8524;57.650;11.926;2023-03-14T08:29:13;12.17;;;2.50;;
16813;SDS011;8524;57.650;11.926;2023-03-14T08:31:44;9.20;;;2.70;;
16813;SDS011;8524;57.650;11.926;2023-03-14T08:34:11;10.33;;;3.03;;
16813;SDS011;8524;57.650;11.926;2023-03-14T08:36:38;9.37;;;2.67;;
16813;SDS011;8524;57.650;11.926;2023-03-14T08:39:05;10.77;;;2.80;;
16813;SDS011;8524;57.650;11.926;2023-03-14T08:41:39;8.77;;;2.47;;
16813;SDS011;8524;57.650;11.926;2023-03-14T08:44:11;7.70;;;2.20;;
16813;SDS011;8524;57.650;11.926;2023-03-14T08:46:58;7.30;;;1.90;;
16813;SDS011;8524;57.650;11.926;2023-03-14T08:49:29;6.90;;;2.17;;
16813;SDS011;8524;57.650;11.926;2023-03-14T08:52:05;8.80;;;2.33;;
16813;SDS011;8524;57.650;11.926;2023-03-14T08:54:38;6.50;;;2.23;;
16813;SDS011;8524;57.650;11.926;2023-03-14T08:57:05;9.77;;;2.57;;
16813;SDS011;8524;57.650;11.926;2023-03-14T08:59:42;7.10;;;1.90;;
16813;SDS011;8524;57.650;11.926;2023-03-14T09:02:14;6.77;;;2.27;;
16813;SDS011;8524;57.650;11.926;2023-03-14T09:04:43;9.47;;;2.53;;
16813;SDS011;8524;57.650;11.926;2023-03-14T09:07:13;9.30;;;2.30;;
16813;SDS011;8524;57.650;11.926;2023-03-14T09:09:42;6.17;;;2.30;;
16813;SDS011;8524;57.650;11.926;2023-03-14T09:12:11;10.70;;;2.60;;
16813;SDS011;8524;57.650;11.926;2023-03-14T09:14:51;8.77;;;2.27;;
16813;SDS011;8524;57.650;11.926;2023-03-14T09:17:20;7.77;;;2.13;;
16813;SDS011;8524;57.650;11.926;2023-03-14T09:19:50;6.60;;;2.07;;
16813;SDS011;8524;57.650;11.926;2023-03-14T09:22:18;8.33;;;1.90;;
16813;SDS011;8524;57.650;11.926;2023-03-14T09:24:45;8.60;;;1.90;;
16813;SDS011;8524;57.650;11.926;2023-03-14T09:27:16;6.60;;;1.87;;
16813;SDS011;8524;57.650;11.926;2023-03-14T09:29:47;6.70;;;2.07;;
16813;SDS011;8524;57.650;11.926;2023-03-14T09:32:14;5.87;;;2.00;;
16813;SDS011;8524;57.650;11.926;2023-03-14T09:34:47;6.10;;;2.13;;
16813;SDS011;8524;57.650;11.926;2023-03-14T09:37:22;6.93;;;1.97;;
16813;SDS011;8524;57.650;11.926;2023-03-14T09:39:55;7.35;;;2.15;;
16813;SDS011;8524;57.650;11.926;2023-03-14T09:42:24;5.03;;;1.60;;
16813;SDS011;8524;57.650;11.926;2023-03-14T09:44:53;6.53;;;2.07;;
16813;SDS011;8524;57.650;11.926;2023-03-14T09:50:19;6.72;;;2.25;;
16813;SDS011;8524;57.650;11.926;2023-03-14T09:52:47;4.93;;;1.47;;
16813;SDS011;8524;57.650;11.926;2023-03-14T09:55:16;4.70;;;1.90;;
16813;SDS011;8524;57.650;11.926;2023-03-14T09:57:46;4.70;;;1.50;;
16813;SDS011;8524;57.650;11.926;2023-03-14T10:00:16;5.27;;;1.60;;
16813;SDS011;8524;57.650;11.926;2023-03-14T10:02:49;5.03;;;1.77;;
16813;SDS011;8524;57.650;11.926;2023-03-14T10:05:23;7.00;;;2.00;;
16813;SDS011;8524;57.650;11.926;2023-03-14T10:07:53;8.13;;;1.97;;
16813;SDS011;8524;57.650;11.926;2023-03-14T10:10:21;5.73;;;1.73;;
16813;SDS011;8524;57.650;11.926;2023-03-14T10:12:58;7.43;;;1.70;;
16813;SDS011;8524;57.650;11.926;2023-03-14T10:15:38;7.60;;;1.93;;
16813;SDS011;8524;57.650;11.926;2023-03-14T10:18:13;5.13;;;1.43;;
16813;SDS011;8524;57.650;11.926;2023-03-14T10:21:01;6.03;;;1.90;;
16813;SDS011;8524;57.650;11.926;2023-03-14T10:23:31;5.07;;;1.40;;
16813;SDS011;8524;57.650;11.926;2023-03-14T10:26:03;4.60;;;1.50;;
16813;SDS011;8524;57.650;11.926;2023-03-14T10:28:33;5.93;;;2.00;;
16813;SDS011;8524;57.650;11.926;2023-03-14T10:31:04;4.25;;;1.80;;
16813;SDS011;8524;57.650;11.926;2023-03-14T10:33:33;5.60;;;1.90;;
16813;SDS011;8524;57.650;11.926;2023-03-14T10:36:03;4.87;;;1.30;;
16813;SDS011;8524;57.650;11.926;2023-03-14T10:38:41;5.83;;;1.70;;
16813;SDS011;8524;57.650;11.926;2023-03-14T10:41:14;6.53;;;1.77;;
16813;SDS011;8524;57.650;11.926;2023-03-14T10:43:43;7.77;;;2.00;;
16813;SDS011;8524;57.650;11.926;2023-03-14T10:46:12;3.30;;;1.47;;
16813;SDS011;8524;57.650;11.926;2023-03-14T10:48:42;4.93;;;1.23;;
16813;SDS011;8524;57.650;11.926;2023-03-14T10:51:17;3.67;;;1.60;;
16813;SDS011;8524;57.650;11.926;2023-03-14T10:53:46;5.83;;;1.53;;
16813;SDS011;8524;57.650;11.926;2023-03-14T10:56:16;5.47;;;1.50;;
16813;SDS011;8524;57.650;11.926;2023-03-14T10:59:01;5.93;;;1.40;;
16813;SDS011;8524;57.650;11.926;2023-03-14T11:01:44;4.10;;;1.60;;
16813;SDS011;8524;57.650;11.926;2023-03-14T11:04:21;4.00;;;1.60;;
16813;SDS011;8524;57.650;11.926;2023-03-14T11:07:08;4.95;;;1.83;;
16813;SDS011;8524;57.650;11.926;2023-03-14T11:09:44;3.97;;;1.50;;
16813;SDS011;8524;57.650;11.926;2023-03-14T11:12:34;5.97;;;1.73;;
16813;SDS011;8524;57.650;11.926;2023-03-14T11:15:11;5.40;;;1.87;;
16813;SDS011;8524;57.650;11.926;2023-03-14T11:17:46;4.80;;;1.70;;
16813;SDS011;8524;57.650;11.926;2023-03-14T11:20:26;8.43;;;1.60;;
16813;SDS011;8524;57.650;11.926;2023-03-14T11:23:01;5.43;;;1.63;;
16813;SDS011;8524;57.650;11.926;2023-03-14T11:25:35;7.77;;;1.27;;
16813;SDS011;8524;57.650;11.926;2023-03-14T11:28:14;7.93;;;1.60;;
16813;SDS011;8524;57.650;11.926;2023-03-14T11:30:47;3.50;;;1.40;;
16813;SDS011;8524;57.650;11.926;2023-03-14T11:33:20;7.50;;;1.70;;
16813;SDS011;8524;57.650;11.926;2023-03-14T11:35:55;4.93;;;1.87;;
16813;SDS011;8524;57.650;11.926;2023-03-14T11:38:52;2.67;;;1.20;;
16813;SDS011;8524;57.650;11.926;2023-03-14T11:41:25;4.83;;;1.47;;
16813;SDS011;8524;57.650;11.926;2023-03-14T11:44:00;3.47;;;1.23;;
16813;SDS011;8524;57.650;11.926;2023-03-14T11:46:33;5.30;;;1.33;;
16813;SDS011;8524;57.650;11.926;2023-03-14T11:49:17;3.17;;;1.43;;
16813;SDS011;8524;57.650;11.926;2023-03-14T11:52:16;6.03;;;1.70;;
16813;SDS011;8524;57.650;11.926;2023-03-14T11:54:53;4.20;;;1.30;;
16813;SDS011;8524;57.650;11.926;2023-03-14T11:57:26;6.13;;;1.17;;
16813;SDS011;8524;57.650;11.926;2023-03-14T11:59:55;9.93;;;1.70;;
16813;SDS011;8524;57.650;11.926;2023-03-14T12:02:32;5.67;;;1.50;;
16813;SDS011;8524;57.650;11.926;2023-03-14T12:05:22;5.80;;;1.60;;
16813;SDS011;8524;57.650;11.926;2023-03-14T12:11:19;4.17;;;1.63;;
16813;SDS011;8524;57.650;11.926;2023-03-14T12:13:54;2.60;;;1.13;;
16813;SDS011;8524;57.650;11.926;2023-03-14T12:16:29;4.00;;;1.03;;
16813;SDS011;8524;57.650;11.926;2023-03-14T12:19:21;1.63;;;0.90;;
16813;SDS011;8524;57.650;11.926;2023-03-14T12:21:54;4.77;;;1.20;;
16813;SDS011;8524;57.650;11.926;2023-03-14T12:24:25;4.30;;;1.53;;
16813;SDS011;8524;57.650;11.926;2023-03-14T12:26:57;5.67;;;1.30;;
16813;SDS011;8524;57.650;11.926;2023-03-14T12:29:26;4.67;;;1.10;;
16813;SDS011;8524;57.650;11.926;2023-03-14T12:32:07;2.58;;;1.20;;
16813;SDS011;8524;57.650;11.926;2023-03-14T12:34:46;2.73;;;1.23;;
16813;SDS011;8524;57.650;11.926;2023-03-14T12:37:16;2.93;;;1.20;;
16813;SDS011;8524;57.650;11.926;2023-03-14T12:40:01;3.00;;;1.35;;
16813;SDS011;8524;57.650;11.926;2023-03-14T12:42:40;2.07;;;1.00;;
16813;SDS011;8524;57.650;11.926;2023-03-14T12:45:21;5.00;;;1.17;;
16813;SDS011;8524;57.650;11.926;2023-03-14T12:50:38;4.60;;;1.37;;
16813;SDS011;8524;57.650;11.926;2023-03-14T12:53:21;2.33;;;1.20;;
16813;SDS011;8524;57.650;11.926;2023-03-14T12:56:11;1.33;;;0.80;;
16813;SDS011;8524;57.650;11.926;2023-03-14T12:58:50;2.00;;;1.03;;
16813;SDS011;8524;57.650;11.926;2023-03-14T13:01:32;3.83;;;1.00;;
16813;SDS011;8524;57.650;11.926;2023-03-14T13:04:02;3.03;;;1.10;;
16813;SDS011;8524;57.650;11.926;2023-03-14T13:06:47;3.07;;;1.23;;
16813;SDS011;8524;57.650;11.926;2023-03-14T13:12:22;2.90;;;1.00;;
16813;SDS011;8524;57.650;11.926;2023-03-14T13:14:57;2.43;;;0.93;;
16813;SDS011;8524;57.650;11.926;2023-03-14T13:17:30;2.43;;;1.00;;
16813;SDS011;8524;57.650;11.926;2023-03-14T13:20:00;3.13;;;1.03;;
16813;SDS011;8524;57.650;11.926;2023-03-14T13:22:34;1.50;;;0.90;;
16813;SDS011;8524;57.650;11.926;2023-03-14T13:25:09;3.23;;;1.00;;
16813;SDS011;8524;57.650;11.926;2023-03-14T13:27:37;6.67;;;1.27;;
16813;SDS011;8524;57.650;11.926;2023-03-14T13:30:12;2.10;;;1.30;;
16813;SDS011;8524;57.650;11.926;2023-03-14T13:32:46;5.17;;;1.27;;
16813;SDS011;8524;57.650;11.926;2023-03-14T13:35:15;3.03;;;0.90;;
16813;SDS011;8524;57.650;11.926;2023-03-14T13:37:44;1.60;;;1.00;;
16813;SDS011;8524;57.650;11.926;2023-03-14T13:40:29;2.60;;;0.90;;
16813;SDS011;8524;57.650;11.926;2023-03-14T13:43:19;2.97;;;1.20;;
16813;SDS011;8524;57.650;11.926;2023-03-14T13:45:52;2.27;;;0.87;;
16813;SDS011;8524;57.650;11.926;2023-03-14T13:48:21;1.57;;;0.80;;
16813;SDS011;8524;57.650;11.926;2023-03-14T13:50:53;2.17;;;0.93;;
16813;SDS011;8524;57.650;11.926;2023-03-14T13:53:26;2.77;;;1.10;;
16813;SDS011;8524;57.650;11.926;2023-03-14T13:56:01;1.17;;;0.80;;
16813;SDS011;8524;57.650;11.926;2023-03-14T13:58:36;3.40;;;0.80;;
16813;SDS011;8524;57.650;11.926;2023-03-14T14:03:57;1.27;;;0.60;;
16813;SDS011;8524;57.650;11.926;2023-03-14T14:06:29;2.80;;;0.80;;
16813;SDS011;8524;57.650;11.926;2023-03-14T14:08:58;2.90;;;0.97;;
16813;SDS011;8524;57.650;11.926;2023-03-14T14:11:32;2.37;;;0.70;;
16813;SDS011;8524;57.650;11.926;2023-03-14T14:14:18;1.40;;;0.80;;
16813;SDS011;8524;57.650;11.926;2023-03-14T14:16:49;3.73;;;0.70;;
16813;SDS011;8524;57.650;11.926;2023-03-14T14:19:17;2.43;;;0.83;;
16813;SDS011;8524;57.650;11.926;2023-03-14T14:21:47;2.10;;;0.80;;
16813;SDS011;8524;57.650;11.926;2023-03-14T14:24:14;1.03;;;0.80;;
16813;SDS011;8524;57.650;11.926;2023-03-14T14:26:46;1.80;;;0.97;;
16813;SDS011;8524;57.650;11.926;2023-03-14T14:32:20;1.43;;;1.00;;
16813;SDS011;8524;57.650;11.926;2023-03-14T14:34:55;1.93;;;1.00;;
16813;SDS011;8524;57.650;11.926;2023-03-14T14:37:24;3.30;;;1.10;;
16813;SDS011;8524;57.650;11.926;2023-03-14T14:39:54;0.90;;;0.77;;
16813;SDS011;8524;57.650;11.926;2023-03-14T14:42:24;1.77;;;0.90;;
16813;SDS011;8524;57.650;11.926;2023-03-14T14:44:53;1.60;;;0.70;;
16813;SDS011;8524;57.650;11.926;2023-03-14T14:47:24;1.50;;;0.90;;
16813;SDS011;8524;57.650;11.926;2023-03-14T14:49:58;2.23;;;0.87;;
16813;SDS011;8524;57.650;11.926;2023-03-14T14:52:36;2.20;;;0.67;;
16813;SDS011;8524;57.650;11.926;2023-03-14T14:55:13;0.90;;;0.70;;
16813;SDS011;8524;57.650;11.926;2023-03-14T14:57:48;1.03;;;0.70;;
16813;SDS011;8524;57.650;11.926;2023-03-14T15:00:18;1.23;;;0.90;;
16813;SDS011;8524;57.650;11.926;2023-03-14T15:02:49;2.13;;;0.77;;
16813;SDS011;8524;57.650;11.926;2023-03-14T15:05:18;2.67;;;0.90;;
16813;SDS011;8524;57.650;11.926;2023-03-14T15:07:53;1.80;;;0.90;;
16813;SDS011;8524;57.650;11.926;2023-03-14T15:10:21;2.93;;;1.03;;
16813;SDS011;8524;57.650;11.926;2023-03-14T15:12:49;2.67;;;0.80;;
16813;SDS011;8524;57.650;11.926;2023-03-14T15:15:17;1.10;;;0.90;;
16813;SDS011;8524;57.650;11.926;2023-03-14T15:17:45;3.43;;;1.20;;
16813;SDS011;8524;57.650;11.926;2023-03-14T15:20:14;1.97;;;1.30;;